Terminal Aerodrome Forecast
Issued by NWS Twin Cities, MN

Home | Current Version | Previous Version | Text Only | Print | Product List | Glossary On
Versions: 1 2 3 4 5 6 7 8 9 10 11 12 13 14 15 16 17 18 19 20 21
000
FTUS43 KMPX 261728
TAFEAU
TAF
KEAU 261728Z 2618/2718 24007KT P6SM FEW250
     FM270300 VRB03KT P6SM BKN250
     FM271200 13004KT P6SM -SHRA BKN050 PROB30 2714/2718 -TSRA
      BKN020CB=

USA.gov is the U.S. government's official web portal to all federal, state and local government web resources and services.